Time;durP1;ratioP1;P1;durP2;ratioP2;P2;SDS_P1;SDS_P2;PMS_P1;PMS_P2;Temp;Humidity;BMP_temperature;BMP_pressure;BME280_temperature;BME280_humidity;BME280_pressure;Samples;Min_cycle;Max_cycle;Signal;HPM_P1;HPM_P2
2023/05/02 00:01:53;;;;;;;20.53;14.87;;;11.00;98.30;;;;;;5030328;28;20833;-77
2023/05/02 00:04:20;;;;;;;20.13;13.70;;;10.90;98.90;;;;;;5027187;28;20220;-78
2023/05/02 00:06:48;;;;;;;24.77;16.57;;;10.90;99.10;;;;;;5031645;28;21116;-78
2023/05/02 00:09:15;;;;;;;26.40;16.83;;;10.80;99.40;;;;;;5027354;28;20918;-78
2023/05/02 00:11:41;;;;;;;22.73;16.83;;;10.80;99.70;;;;;;5053220;22;20227;-76
2023/05/02 00:14:08;;;;;;;25.97;17.37;;;10.80;99.90;;;;;;5041067;28;20248;-76
2023/05/02 00:16:35;;;;;;;24.90;17.10;;;10.70;99.90;;;;;;5037898;28;20220;-77
2023/05/02 00:19:02;;;;;;;24.53;17.73;;;10.70;99.90;;;;;;5024407;28;20307;-77
2023/05/02 00:21:29;;;;;;;25.93;18.33;;;10.70;99.90;;;;;;5037105;28;20265;-77
2023/05/02 00:23:57;;;;;;;26.67;18.80;;;10.70;99.90;;;;;;5028695;28;20277;-76
2023/05/02 00:26:25;;;;;;;28.17;19.57;;;10.70;99.90;;;;;;5037140;28;20306;-76
2023/05/02 00:28:52;;;;;;;28.37;18.73;;;10.70;99.90;;;;;;5043079;28;20663;-76
2023/05/02 00:31:19;;;;;;;26.77;19.43;;;10.70;99.90;;;;;;5039493;28;20609;-76
2023/05/02 00:33:46;;;;;;;27.07;18.17;;;10.70;99.90;;;;;;5037564;28;20230;-76
2023/05/02 00:36:16;;;;;;;25.23;17.87;;;10.70;99.90;;;;;;5035537;28;20216;-76
2023/05/02 00:38:44;;;;;;;26.33;18.63;;;10.70;99.90;;;;;;5011088;28;20224;-77
2023/05/02 00:41:12;;;;;;;25.80;18.57;;;10.70;99.90;;;;;;5018667;28;20568;-78
2023/05/02 00:43:39;;;;;;;26.87;18.40;;;10.70;99.90;;;;;;5019488;28;20254;-77
2023/05/02 00:46:07;;;;;;;25.23;19.10;;;10.70;99.90;;;;;;5017236;28;20300;-77
2023/05/02 00:48:35;;;;;;;29.47;19.27;;;10.80;99.90;;;;;;5036419;28;20217;-77
2023/05/02 00:51:05;;;;;;;25.10;18.37;;;10.70;99.90;;;;;;5024457;28;20312;-77
2023/05/02 00:53:32;;;;;;;27.20;19.27;;;10.80;99.90;;;;;;5034497;28;20219;-77
2023/05/02 00:55:59;;;;;;;24.83;18.77;;;10.80;99.90;;;;;;5038764;28;20235;-77
2023/05/02 00:58:28;;;;;;;24.07;18.10;;;10.80;99.90;;;;;;5024944;28;20303;-76
2023/05/02 01:01:07;;;;;;;23.93;17.70;;;10.80;99.90;;;;;;5024986;28;20219;-77
2023/05/02 01:03:44;;;;;;;25.63;18.63;;;10.70;99.90;;;;;;5030872;28;20220;-77
2023/05/02 01:06:24;;;;;;;26.10;19.33;;;10.80;99.90;;;;;;5021397;28;20236;-77
2023/05/02 01:08:56;;;;;;;24.87;18.63;;;10.70;99.90;;;;;;5035461;28;20622;-77
2023/05/02 01:11:34;;;;;;;25.53;18.33;;;10.80;99.90;;;;;;5043815;28;20230;-76
2023/05/02 01:14:06;;;;;;;25.03;18.00;;;10.70;99.90;;;;;;5029230;28;20316;-76
2023/05/02 01:16:37;;;;;;;26.13;18.53;;;10.80;99.90;;;;;;5037811;28;20261;-76
2023/05/02 01:19:08;;;;;;;27.57;19.03;;;10.80;99.90;;;;;;5040113;28;20224;-77
2023/05/02 01:21:37;;;;;;;26.20;18.67;;;10.80;99.90;;;;;;5035683;28;20231;-77
2023/05/02 01:24:11;;;;;;;26.60;18.87;;;10.80;99.90;;;;;;5008241;28;20237;-76
2023/05/02 01:26:52;;;;;;;25.03;17.63;;;10.80;99.90;;;;;;5023612;28;20284;-77
2023/05/02 01:29:22;;;;;;;24.90;17.50;;;10.80;99.90;;;;;;5019810;28;20280;-77
2023/05/02 01:31:51;;;;;;;23.33;17.10;;;10.80;99.90;;;;;;5022746;28;20708;-77
2023/05/02 01:34:20;;;;;;;24.20;17.00;;;10.80;99.90;;;;;;5024781;28;20234;-77
2023/05/02 01:36:49;;;;;;;21.17;15.57;;;10.80;99.90;;;;;;5022543;28;20286;-77
2023/05/02 01:39:20;;;;;;;17.83;13.70;;;10.80;99.90;;;;;;5021426;28;20304;-77
2023/05/02 01:41:52;;;;;;;19.33;14.70;;;10.70;99.90;;;;;;5022865;28;20223;-77
2023/05/02 01:44:23;;;;;;;20.40;14.87;;;10.70;99.90;;;;;;5024358;28;20311;-77
2023/05/02 01:46:52;;;;;;;20.00;13.87;;;10.70;99.90;;;;;;5043859;28;20674;-77
2023/05/02 01:49:20;;;;;;;21.47;14.00;;;10.70;99.90;;;;;;5027480;28;20250;-76
2023/05/02 01:51:49;;;;;;;21.80;15.23;;;10.70;99.90;;;;;;5027818;28;20313;-77
2023/05/02 01:54:17;;;;;;;17.23;12.93;;;10.70;99.90;;;;;;5043547;28;20230;-76
2023/05/02 01:56:45;;;;;;;21.90;12.93;;;10.60;99.90;;;;;;5042900;28;20257;-76
2023/05/02 01:59:16;;;;;;;17.00;12.97;;;10.60;99.90;;;;;;5017834;28;20228;-76
2023/05/02 02:01:45;;;;;;;20.00;12.97;;;10.60;99.90;;;;;;5034076;28;20787;-77
2023/05/02 02:04:15;;;;;;;21.37;11.97;;;10.60;99.90;;;;;;5023310;28;20228;-76
2023/05/02 02:06:46;;;;;;;19.10;12.13;;;10.60;99.90;;;;;;5065472;28;20227;-76
2023/05/02 02:09:13;;;;;;;18.37;12.10;;;10.60;99.90;;;;;;5038206;28;20336;-76
2023/05/02 02:11:44;;;;;;;16.40;11.33;;;10.60;99.90;;;;;;5027552;28;20269;-76
2023/05/02 02:14:18;;;;;;;16.80;10.93;;;10.60;99.90;;;;;;5027809;28;20558;-76
2023/05/02 02:16:46;;;;;;;16.77;11.00;;;10.60;99.90;;;;;;5026100;28;20241;-76
2023/05/02 02:19:15;;;;;;;17.17;10.57;;;10.60;99.90;;;;;;5033388;28;20563;-76
2023/05/02 02:21:43;;;;;;;16.57;10.47;;;10.50;99.90;;;;;;5044429;28;20227;-76
2023/05/02 02:24:11;;;;;;;17.37;10.77;;;10.50;99.90;;;;;;5036172;28;20234;-76
2023/05/02 02:26:38;;;;;;;13.47;9.43;;;10.50;99.90;;;;;;5036598;28;20288;-76
2023/05/02 02:29:05;;;;;;;14.27;9.37;;;10.50;99.90;;;;;;5026708;28;20230;-76
2023/05/02 02:31:32;;;;;;;12.13;8.30;;;10.50;99.90;;;;;;5044777;28;20751;-75
2023/05/02 02:34:01;;;;;;;14.57;9.33;;;10.40;99.90;;;;;;5044052;28;20230;-76
2023/05/02 02:36:35;;;;;;;12.03;8.23;;;10.40;99.90;;;;;;5028377;28;20257;-76
2023/05/02 02:39:12;;;;;;;9.03;6.37;;;10.40;99.90;;;;;;5026003;28;20310;-76
2023/05/02 02:41:46;;;;;;;8.27;5.27;;;10.30;99.90;;;;;;5045899;28;20234;-76
2023/05/02 02:44:24;;;;;;;7.73;4.90;;;10.30;99.90;;;;;;5043166;28;20249;-76
2023/05/02 02:47:01;;;;;;;6.80;5.67;;;10.30;99.90;;;;;;5020012;28;20242;-76
2023/05/02 02:49:38;;;;;;;7.63;6.93;;;10.20;99.90;;;;;;5026344;28;20686;-76
2023/05/02 02:52:09;;;;;;;9.60;6.60;;;10.30;99.90;;;;;;5044796;28;20254;-76
2023/05/02 02:54:43;;;;;;;7.67;6.03;;;10.30;99.90;;;;;;5044773;28;20298;-76
2023/05/02 02:57:17;;;;;;;7.23;5.60;;;10.30;99.90;;;;;;5043254;28;20231;-76
2023/05/02 02:59:51;;;;;;;5.63;4.47;;;10.20;99.90;;;;;;5026204;28;20315;-76
2023/05/02 03:02:22;;;;;;;4.80;3.20;;;10.20;99.90;;;;;;5025667;28;20266;-76
2023/05/02 03:04:52;;;;;;;4.87;2.80;;;10.10;99.90;;;;;;5025552;28;20683;-76
2023/05/02 03:07:18;;;;;;;5.40;2.60;;;10.00;99.90;;;;;;5043450;28;20224;-76
2023/05/02 03:09:47;;;;;;;8.60;3.10;;;9.90;99.90;;;;;;5035408;28;20216;-76
2023/05/02 03:12:20;;;;;;;7.77;3.00;;;9.80;99.90;;;;;;5027685;28;20242;-76
2023/05/02 03:14:48;;;;;;;8.87;3.70;;;9.70;99.90;;;;;;5025493;28;20219;-75
2023/05/02 03:17:14;;;;;;;7.87;3.53;;;9.60;99.90;;;;;;5025608;28;20658;-76
2023/05/02 03:19:42;;;;;;;9.50;3.33;;;9.50;99.90;;;;;;5025658;28;20227;-76
2023/05/02 03:22:10;;;;;;;12.77;3.97;;;9.40;99.90;;;;;;5029663;28;20281;-76
2023/05/02 03:24:37;;;;;;;11.53;4.67;;;9.30;99.90;;;;;;5025328;28;20251;-75
2023/05/02 03:27:04;;;;;;;12.87;4.60;;;9.20;99.90;;;;;;5025266;28;20230;-75
2023/05/02 03:29:37;;;;;;;15.50;4.83;;;9.20;99.90;;;;;;5029367;28;20236;-75
2023/05/02 03:32:04;;;;;;;13.23;4.73;;;9.10;99.90;;;;;;5011665;28;20232;-75
2023/05/02 03:34:31;;;;;;;13.77;4.40;;;8.90;99.90;;;;;;5025902;28;20285;-76
2023/05/02 03:36:58;;;;;;;15.50;4.33;;;8.80;99.90;;;;;;5025358;28;20232;-75
2023/05/02 03:39:27;;;;;;;14.37;3.87;;;8.70;99.90;;;;;;5024515;28;20230;-76
2023/05/02 03:41:54;;;;;;;13.83;4.27;;;8.60;99.90;;;;;;5043068;28;20307;-75
2023/05/02 03:44:23;;;;;;;15.97;3.77;;;8.40;99.90;;;;;;5021373;28;20761;-75
2023/05/02 03:46:50;;;;;;;15.07;3.93;;;8.30;99.90;;;;;;5015721;28;20314;-75
2023/05/02 03:49:18;;;;;;;12.37;3.73;;;8.20;99.90;;;;;;5031645;28;20236;-76
2023/05/02 03:51:47;;;;;;;12.73;4.20;;;8.10;99.90;;;;;;5023409;28;20232;-76
2023/05/02 03:54:18;;;;;;;9.53;3.20;;;8.00;99.90;;;;;;5011408;28;20274;-76
2023/05/02 03:56:46;;;;;;;15.67;4.00;;;7.90;99.90;;;;;;5027585;28;20289;-76
2023/05/02 03:59:23;;;;;;;10.90;3.97;;;7.90;99.90;;;;;;5023985;28;20580;-76
2023/05/02 04:01:51;;;;;;;15.40;4.53;;;7.90;99.90;;;;;;5020324;28;20593;-75
2023/05/02 04:04:20;;;;;;;12.70;3.93;;;7.80;99.90;;;;;;5026659;28;20224;-75
2023/05/02 04:06:50;;;;;;;14.00;3.57;;;7.70;99.90;;;;;;5024649;28;20337;-75
2023/05/02 04:09:17;;;;;;;14.20;4.00;;;7.70;99.90;;;;;;5041160;28;20234;-76
2023/05/02 04:11:56;;;;;;;14.13;3.93;;;7.60;99.90;;;;;;5025351;28;20853;-76
2023/05/02 04:14:23;;;;;;;15.97;4.43;;;7.50;99.90;;;;;;5025015;28;20227;-75
2023/05/02 04:16:52;;;;;;;16.83;4.53;;;7.50;99.90;;;;;;5021619;28;20227;-75
2023/05/02 04:19:26;;;;;;;14.97;4.10;;;7.50;99.90;;;;;;5027800;28;20227;-75
2023/05/02 04:21:53;;;;;;;14.43;4.40;;;7.40;99.90;;;;;;5030301;28;20274;-75
2023/05/02 04:24:20;;;;;;;14.10;4.33;;;7.40;99.90;;;;;;5029599;28;20319;-76
2023/05/02 04:26:47;;;;;;;14.20;3.90;;;7.40;99.90;;;;;;5047240;28;20227;-77
2023/05/02 04:29:16;;;;;;;14.73;4.13;;;7.30;99.90;;;;;;5027734;28;20898;-77
2023/05/02 04:31:43;;;;;;;13.77;3.60;;;7.30;99.90;;;;;;5029929;28;20224;-76
2023/05/02 04:34:11;;;;;;;9.53;3.70;;;7.30;99.90;;;;;;5028882;28;20254;-75
2023/05/02 04:36:45;;;;;;;14.17;4.30;;;7.30;99.90;;;;;;5022755;28;20228;-83
2023/05/02 04:39:15;;;;;;;15.13;3.80;;;7.30;99.90;;;;;;5019444;28;20282;-80
2023/05/02 04:41:49;;;;;;;9.10;3.57;;;7.30;99.90;;;;;;5023532;28;20220;-82
2023/05/02 04:44:17;;;;;;;12.50;3.97;;;7.20;99.90;;;;;;5022011;28;20430;-81
2023/05/02 04:46:45;;;;;;;15.73;4.40;;;7.20;99.90;;;;;;5020922;28;20221;-80
2023/05/02 04:49:12;;;;;;;13.93;3.80;;;7.20;99.90;;;;;;5016259;28;20250;-81
2023/05/02 04:51:39;;;;;;;18.60;4.40;;;7.30;99.90;;;;;;5024403;28;20332;-81
2023/05/02 04:54:06;;;;;;;10.40;3.83;;;7.30;99.90;;;;;;5021982;28;22147;-80
2023/05/02 04:56:34;;;;;;;11.50;3.90;;;7.30;99.90;;;;;;5021277;28;20635;-80
2023/05/02 04:59:00;;;;;;;18.17;4.30;;;7.30;99.90;;;;;;5020303;28;20993;-80
2023/05/02 05:01:29;;;;;;;9.03;3.30;;;7.30;99.90;;;;;;5020837;28;20355;-81
2023/05/02 05:03:56;;;;;;;15.77;3.50;;;7.30;99.90;;;;;;5018970;28;20236;-81
2023/05/02 05:06:23;;;;;;;16.57;4.60;;;7.30;99.90;;;;;;5034719;28;20220;-79
2023/05/02 05:08:50;;;;;;;12.50;3.47;;;7.40;99.90;;;;;;5024017;28;20248;-79
2023/05/02 05:11:17;;;;;;;12.80;3.90;;;7.40;99.90;;;;;;5019768;28;20220;-82
2023/05/02 05:13:45;;;;;;;11.43;3.67;;;7.50;99.90;;;;;;5021331;28;20676;-80
2023/05/02 05:16:13;;;;;;;12.10;4.00;;;7.50;99.90;;;;;;5014452;28;20870;-81
2023/05/02 05:18:43;;;;;;;9.77;3.47;;;7.50;99.90;;;;;;5017012;28;20298;-81
2023/05/02 05:21:12;;;;;;;12.87;3.70;;;7.50;99.90;;;;;;5021792;28;21810;-81
2023/05/02 05:23:44;;;;;;;15.83;4.10;;;7.50;99.90;;;;;;5012425;28;20710;-82
2023/05/02 05:26:14;;;;;;;10.00;2.77;;;7.50;99.90;;;;;;5018296;28;20243;-81
2023/05/02 05:28:44;;;;;;;12.83;3.40;;;7.50;99.90;;;;;;5016666;28;20233;-80
2023/05/02 05:31:15;;;;;;;10.27;3.07;;;7.50;99.90;;;;;;5040855;28;20315;-81
2023/05/02 05:33:44;;;;;;;11.80;3.40;;;7.50;99.90;;;;;;5035660;28;20232;-80
2023/05/02 05:36:13;;;;;;;11.63;3.03;;;7.50;99.90;;;;;;5022476;28;20341;-80
2023/05/02 05:38:40;;;;;;;9.80;3.17;;;7.50;99.90;;;;;;5015939;28;20368;-81
2023/05/02 05:41:09;;;;;;;15.63;3.30;;;7.50;99.90;;;;;;5017548;28;20286;-81
2023/05/02 05:43:38;;;;;;;9.93;2.80;;;7.50;99.80;;;;;;5020934;28;20537;-81
2023/05/02 05:46:06;;;;;;;11.50;3.40;;;7.40;99.80;;;;;;5020519;28;20244;-81
2023/05/02 05:48:34;;;;;;;7.03;2.80;;;7.40;99.80;;;;;;5022702;28;20331;-81
2023/05/02 05:51:05;;;;;;;10.53;3.23;;;7.30;99.70;;;;;;5020078;28;20220;-81
2023/05/02 05:53:32;;;;;;;11.33;3.23;;;7.30;99.80;;;;;;5019981;28;20325;-81
2023/05/02 05:56:07;;;;;;;9.77;2.97;;;7.30;99.80;;;;;;5018991;28;20235;-80
2023/05/02 05:58:34;;;;;;;10.23;2.80;;;7.40;99.90;;;;;;5036690;28;20800;-80
2023/05/02 06:01:02;;;;;;;7.13;2.83;;;7.30;99.90;;;;;;5030877;28;20243;-79
2023/05/02 06:03:29;;;;;;;8.50;2.60;;;7.40;99.80;;;;;;5020841;23;20235;-79
2023/05/02 06:05:56;;;;;;;8.83;2.70;;;7.40;99.80;;;;;;5000673;28;20228;-79
2023/05/02 06:08:25;;;;;;;6.13;2.53;;;7.40;99.80;;;;;;5021190;28;20822;-80
2023/05/02 06:10:54;;;;;;;11.10;2.83;;;7.40;99.70;;;;;;5012860;23;20236;-79
2023/05/02 06:13:21;;;;;;;10.23;2.87;;;7.40;99.60;;;;;;5022637;28;20307;-80
2023/05/02 06:15:49;;;;;;;7.37;2.63;;;7.50;99.50;;;;;;5024135;28;20263;-80
2023/05/02 06:18:16;;;;;;;8.63;3.40;;;7.40;99.50;;;;;;5017287;28;20235;-79
2023/05/02 06:20:43;;;;;;;8.97;2.30;;;7.40;99.40;;;;;;5040567;28;20281;-80
2023/05/02 06:23:10;;;;;;;10.30;3.10;;;7.40;99.30;;;;;;5025116;28;20232;-79
2023/05/02 06:25:41;;;;;;;9.07;3.03;;;7.40;99.20;;;;;;5045517;28;20216;-79
2023/05/02 06:30:36;;;;;;;8.70;2.83;;;7.50;99.20;;;;;;5018499;28;20217;-79
2023/05/02 06:33:04;;;;;;;15.03;3.60;;;7.50;99.10;;;;;;4999814;28;20225;-78
2023/05/02 06:35:31;;;;;;;9.27;3.47;;;7.50;99.10;;;;;;5008104;28;20222;-79
2023/05/02 06:37:58;;;;;;;8.87;2.67;;;7.60;99.20;;;;;;5021311;28;20235;-79
2023/05/02 06:40:28;;;;;;;11.33;2.60;;;7.60;99.20;;;;;;4999106;28;20248;-79
2023/05/02 06:42:56;;;;;;;7.37;2.40;;;7.60;99.10;;;;;;5021161;28;20873;-79
2023/05/02 06:45:24;;;;;;;7.57;2.53;;;7.70;99.00;;;;;;5014011;28;20220;-77
2023/05/02 06:47:51;;;;;;;5.70;2.40;;;7.70;98.70;;;;;;5019745;28;20250;-80
2023/05/02 06:50:18;;;;;;;7.20;2.57;;;7.80;98.40;;;;;;5035097;23;20235;-78
2023/05/02 06:52:45;;;;;;;7.40;2.70;;;7.80;98.20;;;;;;5044343;28;20235;-76
2023/05/02 06:55:11;;;;;;;8.23;2.57;;;7.80;98.30;;;;;;5038089;28;20218;-77
2023/05/02 06:57:38;;;;;;;11.83;3.17;;;7.80;98.20;;;;;;5058512;28;20288;-79
2023/05/02 07:00:07;;;;;;;7.77;2.43;;;7.80;98.20;;;;;;5075369;22;20314;-83
2023/05/02 07:02:34;;;;;;;7.70;2.50;;;7.80;98.10;;;;;;5049322;28;20236;-82
2023/05/02 07:05:01;;;;;;;6.27;2.47;;;7.90;98.00;;;;;;5067875;28;20693;-83
2023/05/02 07:07:31;;;;;;;8.13;2.30;;;7.80;97.90;;;;;;5046687;28;20227;-82
2023/05/02 07:09:57;;;;;;;7.83;2.40;;;7.90;97.90;;;;;;5061571;28;20224;-79
2023/05/02 07:12:25;;;;;;;6.67;2.20;;;7.90;97.80;;;;;;5052565;28;20227;-80
2023/05/02 07:14:52;;;;;;;6.60;2.23;;;8.00;97.80;;;;;;5030591;28;20308;-80
2023/05/02 07:17:21;;;;;;;4.83;2.40;;;8.00;97.60;;;;;;5045629;28;20223;-80
2023/05/02 07:19:47;;;;;;;5.90;2.20;;;8.00;97.30;;;;;;5043026;28;20231;-80
2023/05/02 07:22:15;;;;;;;3.53;1.80;;;8.00;97.00;;;;;;5026490;28;20295;-80
2023/05/02 07:24:42;;;;;;;4.63;2.23;;;8.10;96.90;;;;;;5049235;28;20307;-79
2023/05/02 07:27:09;;;;;;;7.63;2.27;;;8.10;96.90;;;;;;5032953;28;20695;-81
2023/05/02 07:29:36;;;;;;;8.33;2.10;;;8.20;96.90;;;;;;5040568;28;20292;-80
2023/05/02 07:32:03;;;;;;;4.90;2.10;;;8.20;96.70;;;;;;5042412;28;20380;-80
2023/05/02 07:34:32;;;;;;;5.77;1.90;;;8.30;96.50;;;;;;5022219;28;20595;-80
2023/05/02 07:36:59;;;;;;;5.60;2.20;;;8.30;96.20;;;;;;5043500;28;20224;-80
2023/05/02 07:39:25;;;;;;;7.60;2.57;;;8.30;96.00;;;;;;5033266;28;20228;-79
2023/05/02 07:41:52;;;;;;;8.33;2.43;;;8.30;95.70;;;;;;5022218;28;20227;-79
2023/05/02 07:44:19;;;;;;;4.70;1.90;;;8.30;95.60;;;;;;5039362;28;20220;-79
2023/05/02 07:46:46;;;;;;;5.87;2.00;;;8.40;95.40;;;;;;5040853;28;20224;-79
2023/05/02 07:49:13;;;;;;;7.10;1.97;;;8.40;95.10;;;;;;5045187;28;20230;-79
2023/05/02 07:51:41;;;;;;;5.83;1.70;;;8.50;95.30;;;;;;5048084;28;20264;-79
2023/05/02 07:54:15;;;;;;;5.17;1.70;;;8.60;95.20;;;;;;5050670;28;20824;-80
2023/05/02 07:56:42;;;;;;;5.53;1.70;;;8.70;94.70;;;;;;5046022;28;20281;-80
2023/05/02 07:59:10;;;;;;;7.43;1.90;;;8.80;94.50;;;;;;5029566;28;20585;-80
2023/05/02 08:01:37;;;;;;;5.00;1.70;;;8.90;93.90;;;;;;5029094;28;20235;-81
2023/05/02 08:04:04;;;;;;;4.07;1.50;;;9.00;93.90;;;;;;5032298;28;20246;-80
2023/05/02 08:06:32;;;;;;;4.10;1.80;;;9.00;93.80;;;;;;5028107;28;20576;-79
2023/05/02 08:09:01;;;;;;;4.03;1.70;;;9.10;93.20;;;;;;5049043;28;20219;-78
2023/05/02 08:11:28;;;;;;;5.00;1.90;;;9.10;93.10;;;;;;5049000;28;20242;-80
2023/05/02 08:13:55;;;;;;;7.87;1.77;;;9.20;93.20;;;;;;5047869;28;20221;-80
2023/05/02 08:16:22;;;;;;;6.70;1.80;;;9.20;93.20;;;;;;5034768;28;20248;-80
2023/05/02 08:18:51;;;;;;;4.03;1.40;;;9.30;93.20;;;;;;5032544;28;20250;-80
2023/05/02 08:21:18;;;;;;;5.60;1.57;;;9.30;92.70;;;;;;5030318;28;20232;-80
2023/05/02 08:23:47;;;;;;;5.23;2.03;;;9.40;92.70;;;;;;5027036;28;20228;-79
2023/05/02 08:26:17;;;;;;;4.37;1.50;;;9.50;92.70;;;;;;5045154;28;20227;-80
2023/05/02 08:28:44;;;;;;;5.43;1.67;;;9.60;92.50;;;;;;5030243;28;20779;-80
2023/05/02 08:31:11;;;;;;;9.13;3.27;;;9.70;92.60;;;;;;5056079;28;20634;-80
2023/05/02 08:33:38;;;;;;;7.27;1.83;;;9.90;92.40;;;;;;5049010;28;20315;-80
2023/05/02 08:36:11;;;;;;;4.63;2.00;;;10.00;92.30;;;;;;5049009;28;20218;-80
2023/05/02 08:38:37;;;;;;;6.10;1.77;;;10.20;92.20;;;;;;5029800;28;20247;-80
2023/05/02 08:41:10;;;;;;;8.23;3.60;;;10.40;92.20;;;;;;5047118;28;20487;-80
2023/05/02 08:43:39;;;;;;;10.57;3.20;;;10.60;91.50;;;;;;5030903;28;20247;-80
2023/05/02 08:46:07;;;;;;;5.00;2.57;;;10.70;91.20;;;;;;5029453;28;20227;-80
2023/05/02 08:48:36;;;;;;;4.80;2.00;;;10.90;90.70;;;;;;5047081;28;20232;-79
2023/05/02 08:51:03;;;;;;;5.83;2.63;;;10.90;90.20;;;;;;5052612;28;20259;-80
2023/05/02 08:53:33;;;;;;;5.63;2.30;;;11.10;90.70;;;;;;5030015;28;20224;-80
2023/05/02 08:56:01;;;;;;;7.60;2.63;;;11.20;90.00;;;;;;5049133;28;20262;-80
2023/05/02 08:58:27;;;;;;;7.10;2.10;;;11.50;90.40;;;;;;5027656;28;20230;-80
2023/05/02 09:00:57;;;;;;;7.60;3.30;;;11.60;90.00;;;;;;5044233;28;20231;-80
2023/05/02 09:03:30;;;;;;;7.63;2.07;;;11.80;89.30;;;;;;5042026;28;20249;-80
2023/05/02 09:06:04;;;;;;;6.43;2.20;;;11.90;88.30;;;;;;5046898;28;20304;-80
2023/05/02 09:08:31;;;;;;;16.50;3.13;;;12.00;87.60;;;;;;5044936;28;20221;-80
2023/05/02 09:10:58;;;;;;;5.77;2.10;;;12.10;86.90;;;;;;5037732;28;20226;-80
2023/05/02 09:13:30;;;;;;;6.80;3.07;;;12.10;87.10;;;;;;5048636;28;20642;-80
2023/05/02 09:15:59;;;;;;;6.33;2.00;;;12.10;86.10;;;;;;5024055;28;20754;-80
2023/05/02 09:18:30;;;;;;;7.53;1.93;;;12.10;86.20;;;;;;5042035;28;20239;-80
2023/05/02 09:20:59;;;;;;;3.93;1.50;;;12.10;85.30;;;;;;5045499;28;20227;-80
2023/05/02 09:23:50;;;;;;;5.30;1.90;;;12.20;85.50;;;;;;5040714;28;20318;-80
2023/05/02 09:26:20;;;;;;;4.70;1.70;;;12.20;85.10;;;;;;5044935;28;20216;-80
2023/05/02 09:28:48;;;;;;;8.53;2.10;;;12.20;85.20;;;;;;5054317;28;20299;-79
2023/05/02 09:31:17;;;;;;;5.40;1.73;;;12.20;84.90;;;;;;5047590;28;20312;-80
2023/05/02 09:33:44;;;;;;;5.30;2.03;;;12.20;83.90;;;;;;5038679;28;20226;-80
2023/05/02 09:36:13;;;;;;;6.57;2.17;;;12.30;84.50;;;;;;5028817;28;20226;-80
2023/05/02 09:38:41;;;;;;;7.30;1.60;;;12.40;83.80;;;;;;5042585;28;20530;-80
2023/05/02 09:41:08;;;;;;;5.20;1.80;;;12.40;83.70;;;;;;5042829;28;20662;-80
2023/05/02 09:43:34;;;;;;;5.73;1.83;;;12.40;83.50;;;;;;5026997;28;20224;-80
2023/05/02 09:46:02;;;;;;;6.73;2.00;;;12.60;83.00;;;;;;5047492;28;20220;-79
2023/05/02 09:48:32;;;;;;;5.53;1.70;;;12.60;82.60;;;;;;5024893;28;20230;-80
2023/05/02 09:51:00;;;;;;;3.17;1.50;;;12.80;82.00;;;;;;5046787;28;20680;-80
2023/05/02 09:53:27;;;;;;;3.77;1.60;;;13.00;83.00;;;;;;5042982;28;20240;-80
2023/05/02 09:56:00;;;;;;;4.73;1.80;;;13.40;83.10;;;;;;5042487;28;20252;-80
2023/05/02 09:58:29;;;;;;;2.80;1.43;;;13.90;81.10;;;;;;5039090;28;20626;-80
2023/05/02 10:00:56;;;;;;;4.00;1.67;;;14.30;80.90;;;;;;5043355;28;20227;-80
2023/05/02 10:03:25;;;;;;;3.17;1.63;;;14.70;79.40;;;;;;5049644;28;20223;-80
2023/05/02 10:05:53;;;;;;;4.73;1.50;;;14.80;76.90;;;;;;5044061;28;20223;-80
2023/05/02 10:08:21;;;;;;;3.13;1.40;;;14.90;75.20;;;;;;5030275;28;20220;-80
2023/05/02 10:10:52;;;;;;;2.93;1.53;;;14.80;75.20;;;;;;5044619;28;20239;-81
2023/05/02 10:13:21;;;;;;;4.40;1.80;;;14.80;74.80;;;;;;5043555;28;20232;-80
2023/05/02 10:15:53;;;;;;;2.83;1.30;;;14.70;75.10;;;;;;5038170;28;20212;-80
2023/05/02 10:18:28;;;;;;;4.83;1.77;;;14.60;74.50;;;;;;5045674;28;20225;-79
2023/05/02 10:21:05;;;;;;;4.03;1.80;;;14.50;74.70;;;;;;5050469;28;20226;-79
2023/05/02 10:23:32;;;;;;;3.53;1.33;;;14.30;74.90;;;;;;5044885;28;20419;-80
2023/05/02 10:25:59;;;;;;;4.37;1.87;;;14.20;75.80;;;;;;5044759;28;20226;-80
2023/05/02 10:28:27;;;;;;;3.37;1.77;;;14.10;76.60;;;;;;5037143;28;20690;-80
2023/05/02 10:30:54;;;;;;;2.33;1.40;;;14.10;77.60;;;;;;5029850;28;20273;-80
2023/05/02 10:33:22;;;;;;;5.50;1.87;;;14.10;77.80;;;;;;5041296;28;20219;-80
2023/05/02 10:35:49;;;;;;;5.20;1.60;;;14.20;77.10;;;;;;5044414;28;20473;-80
2023/05/02 10:38:20;;;;;;;4.70;1.63;;;14.30;76.40;;;;;;5039251;28;20226;-80
2023/05/02 10:40:54;;;;;;;4.00;1.60;;;14.30;75.40;;;;;;5010809;28;20445;-80
2023/05/02 10:43:24;;;;;;;3.73;1.50;;;14.30;74.80;;;;;;5026280;28;20227;-80
2023/05/02 10:45:52;;;;;;;4.47;1.73;;;14.30;75.30;;;;;;5027349;28;20322;-80
2023/05/02 10:48:21;;;;;;;4.77;1.90;;;14.10;75.50;;;;;;5028382;28;20224;-80
2023/05/02 10:50:51;;;;;;;3.00;1.90;;;13.90;75.10;;;;;;5017659;28;20707;-80
2023/05/02 10:53:28;;;;;;;5.00;1.83;;;13.80;75.60;;;;;;5026821;28;20733;-80
2023/05/02 10:56:12;;;;;;;3.60;2.00;;;13.80;74.80;;;;;;5044890;28;20700;-80
2023/05/02 10:58:39;;;;;;;3.80;2.10;;;13.90;76.00;;;;;;5024806;28;20709;-80
2023/05/02 11:01:38;;;;;;;2.67;2.03;;;14.10;76.80;;;;;;5040973;28;20807;-80
2023/05/02 11:04:11;;;;;;;2.33;1.80;;;14.30;75.50;;;;;;5039670;28;20224;-80
2023/05/02 11:07:11;;;;;;;3.17;1.80;;;14.70;75.70;;;;;;5046471;28;20300;-80
2023/05/02 11:09:41;;;;;;;3.23;1.60;;;14.90;74.80;;;;;;5039605;28;20310;-80
2023/05/02 11:12:08;;;;;;;3.10;1.57;;;15.20;73.80;;;;;;5030805;28;20226;-80
2023/05/02 11:14:48;;;;;;;3.07;1.53;;;15.20;72.70;;;;;;5028855;28;20233;-80
2023/05/02 11:17:16;;;;;;;4.00;1.70;;;15.30;71.80;;;;;;5045316;28;20219;-80
2023/05/02 11:20:27;;;;;;;3.30;1.60;;;15.20;72.20;;;;;;5038234;28;20262;-79
2023/05/02 11:23:24;;;;;;;3.40;1.50;;;15.10;72.00;;;;;;5019484;28;20232;-80
2023/05/02 11:25:54;;;;;;;4.63;1.83;;;15.00;71.80;;;;;;5023133;28;20223;-80
2023/05/02 11:28:51;;;;;;;3.07;1.43;;;15.00;71.90;;;;;;5029105;28;20214;-80
2023/05/02 11:32:03;;;;;;;5.90;1.63;;;14.80;71.10;;;;;;4975717;28;20221;-80
2023/05/02 11:34:43;;;;;;;5.07;1.93;;;14.70;70.80;;;;;;5040791;28;20296;-80
2023/05/02 11:37:12;;;;;;;3.43;1.80;;;14.40;71.10;;;;;;5041833;28;20750;-80
2023/05/02 11:39:39;;;;;;;5.50;1.93;;;14.20;71.80;;;;;;5028940;28;20324;-80
2023/05/02 11:42:07;;;;;;;3.90;1.47;;;14.00;72.30;;;;;;5045284;28;20276;-80
2023/05/02 11:44:52;;;;;;;4.80;1.50;;;13.80;71.90;;;;;;5039701;28;20251;-80
2023/05/02 11:47:20;;;;;;;3.77;1.63;;;13.70;72.70;;;;;;5034036;28;20297;-80
2023/05/02 11:49:46;;;;;;;3.57;1.90;;;13.70;73.60;;;;;;5032033;28;20231;-80
2023/05/02 11:52:15;;;;;;;3.37;1.40;;;13.90;74.10;;;;;;5039973;28;20218;-80
2023/05/02 11:54:42;;;;;;;2.87;1.17;;;14.10;73.50;;;;;;5039730;28;20308;-80
2023/05/02 11:57:11;;;;;;;4.23;1.27;;;14.20;72.80;;;;;;5022986;28;20230;-80
2023/05/02 11:59:52;;;;;;;3.90;1.70;;;14.40;72.90;;;;;;5026453;28;20246;-80
2023/05/02 12:02:19;;;;;;;4.53;1.30;;;14.40;73.30;;;;;;5040478;28;20215;-80
2023/05/02 12:04:49;;;;;;;3.47;1.30;;;14.40;73.40;;;;;;5028106;28;20231;-80
2023/05/02 12:07:15;;;;;;;4.93;1.30;;;14.40;73.10;;;;;;5044360;28;20210;-79
2023/05/02 12:10:00;;;;;;;2.80;1.10;;;14.30;72.70;;;;;;5051308;28;20272;-80
2023/05/02 12:12:30;;;;;;;1.90;0.90;;;14.10;71.30;;;;;;5024903;28;20228;-80
2023/05/02 12:14:57;;;;;;;3.60;1.20;;;14.10;71.30;;;;;;5045191;28;20226;-80
2023/05/02 12:17:24;;;;;;;5.27;1.43;;;13.90;71.00;;;;;;5040905;28;20228;-80
2023/05/02 12:19:51;;;;;;;1.97;1.00;;;13.80;71.40;;;;;;5040853;28;20266;-80
2023/05/02 12:22:18;;;;;;;4.23;1.50;;;13.70;72.40;;;;;;5042464;28;20220;-80
2023/05/02 12:24:45;;;;;;;2.90;1.30;;;13.70;73.00;;;;;;5051843;28;20227;-80
2023/05/02 12:27:12;;;;;;;5.17;1.30;;;13.80;72.80;;;;;;5027092;28;20812;-80
2023/05/02 12:29:41;;;;;;;3.57;1.10;;;13.90;72.40;;;;;;5029219;28;20764;-80
2023/05/02 12:32:08;;;;;;;3.70;1.40;;;14.00;71.50;;;;;;5027184;28;20751;-80
2023/05/02 12:34:36;;;;;;;4.07;1.27;;;14.00;72.00;;;;;;5048172;28;20229;-81
2023/05/02 12:37:07;;;;;;;5.97;1.63;;;13.90;71.30;;;;;;5034727;28;20232;-80
2023/05/02 12:39:36;;;;;;;2.67;1.40;;;13.90;71.60;;;;;;5027641;28;20240;-80
2023/05/02 12:42:10;;;;;;;2.37;1.30;;;13.80;71.90;;;;;;5029643;28;20866;-80
2023/05/02 12:44:38;;;;;;;4.57;1.70;;;13.70;72.00;;;;;;5028216;28;20758;-80
2023/05/02 12:47:06;;;;;;;7.50;1.73;;;13.60;72.20;;;;;;5031238;28;20218;-80
2023/05/02 12:49:36;;;;;;;3.70;1.37;;;13.40;72.10;;;;;;5031162;28;20312;-81
2023/05/02 12:52:03;;;;;;;3.30;1.30;;;13.30;72.00;;;;;;5050881;28;20224;-80
2023/05/02 12:54:30;;;;;;;5.10;1.60;;;13.30;71.30;;;;;;5036668;28;20238;-80
2023/05/02 12:56:57;;;;;;;4.90;1.80;;;13.20;71.40;;;;;;5042452;28;20227;-80
2023/05/02 12:59:28;;;;;;;3.50;1.20;;;13.20;71.20;;;;;;5054228;28;20251;-80
2023/05/02 13:01:54;;;;;;;3.40;1.63;;;13.20;71.30;;;;;;5040000;28;20225;-80